createdAt,value
2023-04-10T00:03:02.542Z,101421.88
2023-04-10T00:08:01.418Z,101407.34
2023-04-10T00:13:01.081Z,101429.34
2023-04-10T00:18:02.692Z,101393.47
2023-04-10T00:23:01.484Z,101400.00
2023-04-10T00:28:02.395Z,101391.22
2023-04-10T00:33:03.977Z,101374.31
2023-04-10T00:38:05.771Z,101404.56
2023-04-10T00:43:05.272Z,101424.47
2023-04-10T00:48:06.530Z,101389.31
2023-04-10T00:53:05.390Z,101391.69
2023-04-10T00:58:07.361Z,101371.44
2023-04-10T01:03:10.721Z,101350.72
2023-04-10T01:08:16.441Z,101410.72
2023-04-10T01:13:48.772Z,101402.25
2023-04-10T01:19:20.096Z,101394.31
2023-04-10T01:24:31.715Z,101402.25
2023-04-10T01:29:31.304Z,101371.78
2023-04-10T01:34:50.935Z,101376.34
2023-04-10T01:39:55.632Z,101344.72
2023-04-10T01:44:56.076Z,101355.31
2023-04-10T01:49:57.086Z,101349.06
2023-04-10T01:54:57.816Z,101366.00
2023-04-10T02:00:05.584Z,101368.31
2023-04-10T02:05:13.225Z,101382.25
2023-04-10T02:10:30.329Z,101373.16
2023-04-10T02:15:34.858Z,101374.41
2023-04-10T02:20:36.691Z,101370.13
2023-04-10T02:25:36.929Z,101360.66
2023-04-10T02:30:37.457Z,101355.31
2023-04-10T02:35:37.795Z,101342.97
2023-04-10T02:40:36.116Z,101364.44
2023-04-10T02:45:45.738Z,101355.69
2023-04-10T02:51:02.722Z,101332.09
2023-04-10T02:56:02.627Z,101339.66
2023-04-10T03:01:02.585Z,101321.34
2023-04-10T03:06:29.518Z,101348.03
2023-04-10T03:11:31.452Z,101340.84
2023-04-10T03:16:32.665Z,101366.06
2023-04-10T03:21:34.497Z,101347.47
2023-04-10T03:26:34.598Z,101339.66
2023-04-10T03:31:32.997Z,101331.19
2023-04-10T03:36:39.626Z,101342.22
2023-04-10T03:41:39.428Z,101369.00
2023-04-10T03:46:37.766Z,101366.38
2023-04-10T03:51:36.937Z,101386.47
2023-04-10T03:56:39.744Z,101358.84
2023-04-10T04:01:38.440Z,101353.81
2023-04-10T04:06:41.252Z,101365.72
2023-04-10T04:12:06.772Z,101348.31
2023-04-10T04:17:40.382Z,101364.94
2023-04-10T04:23:04.409Z,101384.81
2023-04-10T04:28:41.152Z,101367.09
2023-04-10T04:34:03.900Z,101364.25
2023-04-10T04:39:09.578Z,101395.41
2023-04-10T04:44:24.886Z,101378.50
2023-04-10T04:49:47.518Z,101394.56
2023-04-10T04:55:06.371Z,101381.28
2023-04-10T05:00:25.460Z,101411.97
2023-04-10T05:05:27.002Z,101392.28
2023-04-10T05:10:46.652Z,101387.75
2023-04-10T05:16:18.942Z,101393.22
2023-04-10T05:21:43.094Z,101364.38
2023-04-10T05:27:00.865Z,101418.16
2023-04-10T05:32:35.690Z,101429.22
2023-04-10T05:38:12.474Z,101372.25
2023-04-10T05:43:34.326Z,101384.63
2023-04-10T05:48:42.064Z,101373.06
2023-04-10T05:53:52.338Z,101398.22
2023-04-10T05:59:09.693Z,101426.13
2023-04-10T06:04:11.333Z,101388.34
2023-04-10T06:09:11.626Z,101404.69
2023-04-10T06:14:11.942Z,101386.06
2023-04-10T06:19:17.952Z,101427.06
2023-04-10T06:24:16.549Z,101370.19
2023-04-10T06:29:18.429Z,101394.31
2023-04-10T06:34:18.147Z,101393.13
2023-04-10T06:39:35.156Z,101400.63
2023-04-10T06:44:34.369Z,101403.09
2023-04-10T06:49:33.445Z,101401.47
2023-04-10T06:54:33.733Z,101392.41
2023-04-10T06:59:35.062Z,101384.19
2023-04-10T07:04:33.259Z,101386.75
2023-04-10T07:09:31.974Z,101381.69
2023-04-10T07:14:31.750Z,101425.50
2023-04-10T07:19:32.455Z,101399.16
2023-04-10T07:24:32.067Z,101397.53
2023-04-10T07:29:31.373Z,101411.63
2023-04-10T07:34:33.522Z,101419.19
2023-04-10T07:39:34.054Z,101397.22
2023-04-10T07:44:33.064Z,101390.53
2023-04-10T07:49:31.788Z,101394.22
2023-04-10T07:54:35.414Z,101393.88
2023-04-10T07:59:33.847Z,101377.00
2023-04-10T08:04:32.305Z,101379.78
2023-04-10T08:09:31.818Z,101371.63
2023-04-10T08:14:29.809Z,101381.47
2023-04-10T08:19:29.287Z,101380.53
2023-04-10T08:24:27.382Z,101344.66
2023-04-10T08:29:27.330Z,101369.84
2023-04-10T08:34:25.604Z,101364.16
2023-04-10T08:39:23.524Z,101367.66
2023-04-10T08:44:23.036Z,101393.78
2023-04-10T08:49:52.288Z,101379.06
2023-04-10T08:54:57.542Z,101349.59
2023-04-10T08:59:55.944Z,101344.16
2023-04-10T09:04:56.749Z,101352.00
2023-04-10T09:09:55.392Z,101311.31
2023-04-10T09:14:53.876Z,101308.38
2023-04-10T09:19:54.001Z,101319.13
2023-04-10T09:25:00.600Z,101286.78
2023-04-10T09:29:59.531Z,101299.78
2023-04-10T09:35:02.605Z,101290.34
2023-04-10T09:40:00.811Z,101259.25
2023-04-10T09:45:00.553Z,101303.53
2023-04-10T09:50:01.224Z,101261.09
2023-04-10T09:55:04.338Z,101248.59
2023-04-10T10:00:08.064Z,101256.53
2023-04-10T10:05:53.791Z,101278.00
2023-04-10T10:10:54.623Z,101273.56
2023-04-10T10:16:05.577Z,101244.34
2023-04-10T10:21:13.778Z,101216.00
2023-04-10T10:26:16.056Z,101234.81
2023-04-10T10:37:39.415Z,101209.75
2023-04-10T10:42:48.532Z,101224.03
2023-04-10T10:48:10.955Z,101178.75
2023-04-10T10:53:51.422Z,101207.09
2023-04-10T10:59:07.269Z,101204.34
2023-04-10T11:04:46.540Z,101188.16
2023-04-10T11:10:05.294Z,101157.97
2023-04-10T11:15:13.950Z,101166.34
2023-04-10T11:20:13.172Z,101170.69
2023-04-10T11:25:21.207Z,101161.91
2023-04-10T11:30:44.106Z,101149.13
2023-04-10T11:35:51.312Z,101167.66
2023-04-10T11:41:50.978Z,101159.28
2023-04-10T11:46:52.872Z,101169.94
2023-04-10T11:51:53.457Z,101138.63
2023-04-10T11:57:13.036Z,101130.19
2023-04-10T12:02:17.679Z,101122.03
2023-04-10T12:07:20.639Z,101124.66
2023-04-10T12:12:38.851Z,101129.84
2023-04-10T12:17:37.990Z,101083.56
2023-04-10T12:22:39.722Z,101107.91
2023-04-10T12:27:52.432Z,101106.00
2023-04-10T12:32:57.683Z,101097.19
2023-04-10T12:37:56.889Z,101068.66
2023-04-10T12:42:55.745Z,101066.16
2023-04-10T12:58:56.786Z,101063.16
2023-04-10T13:03:54.837Z,101053.69
2023-04-10T13:08:59.842Z,101066.81
2023-04-10T13:13:59.686Z,101030.47
2023-04-10T13:19:01.737Z,101005.28
2023-04-10T13:24:07.140Z,101028.44
2023-04-10T13:29:15.396Z,101030.41
2023-04-10T13:34:29.672Z,100995.09
2023-04-10T13:39:33.903Z,100999.00
2023-04-10T13:44:42.449Z,101040.44
2023-04-10T13:49:44.118Z,101021.13
2023-04-10T13:54:43.324Z,101016.22
2023-04-10T13:59:44.260Z,100991.84
2023-04-10T14:05:08.856Z,101029.66
2023-04-10T14:10:12.632Z,100986.56
2023-04-10T14:15:11.846Z,100998.06
2023-04-10T14:20:16.400Z,101004.97
2023-04-10T14:25:21.568Z,101004.59
2023-04-10T14:30:28.071Z,101019.78
2023-04-10T14:35:28.844Z,101001.84
2023-04-10T14:40:30.873Z,101018.28
2023-04-10T14:45:33.960Z,100969.16
2023-04-10T14:50:33.358Z,100981.03
2023-04-10T14:55:33.860Z,101018.88
2023-04-10T15:00:32.658Z,100989.53
2023-04-10T15:05:35.340Z,100963.16
2023-04-10T15:10:35.781Z,100990.31
2023-04-10T15:15:37.247Z,101002.06
2023-04-10T15:20:39.253Z,100994.78
2023-04-10T15:25:42.428Z,100977.56
2023-04-10T15:30:45.493Z,100975.66
2023-04-10T15:35:44.407Z,100967.81
2023-04-10T15:40:42.598Z,100982.56
2023-04-10T15:45:43.971Z,100965.38
2023-04-10T15:50:43.371Z,100976.47
2023-04-10T15:55:45.306Z,100961.31
2023-04-10T16:00:44.142Z,100955.69
2023-04-10T16:05:43.912Z,100948.03
2023-04-10T16:10:56.473Z,100959.63
2023-04-10T16:15:55.448Z,100949.78
2023-04-10T16:21:01.778Z,100913.72
2023-04-10T16:26:04.506Z,100943.47
2023-04-10T16:31:06.217Z,100948.56
2023-04-10T16:36:27.989Z,100962.72
2023-04-10T16:41:29.307Z,100945.06
2023-04-10T16:46:32.573Z,100939.34
2023-04-10T16:51:47.776Z,100945.81
2023-04-10T16:56:50.591Z,100961.91
2023-04-10T17:02:04.554Z,100944.25
2023-04-10T17:07:06.323Z,100947.75
2023-04-10T17:12:06.409Z,100968.47
2023-04-10T17:17:06.051Z,100979.28
2023-04-10T17:22:04.921Z,100967.31
2023-04-10T17:27:08.990Z,100966.06
2023-04-10T17:32:13.252Z,100966.31
2023-04-10T17:37:14.916Z,100964.59
2023-04-10T17:42:14.872Z,100966.16
2023-04-10T17:47:17.446Z,100992.38
2023-04-10T17:52:16.394Z,100961.78
2023-04-10T17:57:14.520Z,100976.72
2023-04-10T18:02:15.320Z,100981.34
2023-04-10T18:07:26.807Z,100985.59
2023-04-10T18:12:27.675Z,100945.97
2023-04-10T18:17:29.459Z,100971.72
2023-04-10T18:22:31.905Z,100975.63
2023-04-10T18:27:38.841Z,100996.28
2023-04-10T18:32:44.438Z,100982.03
2023-04-10T18:37:44.661Z,100988.69
2023-04-10T18:42:46.166Z,100977.41
2023-04-10T18:47:52.964Z,100992.72
2023-04-10T18:52:57.309Z,100948.97
2023-04-10T18:57:58.279Z,100979.22
2023-04-10T19:02:58.213Z,100983.16
2023-04-10T19:08:04.503Z,100977.56
2023-04-10T19:13:13.189Z,100995.50
2023-04-10T19:18:15.866Z,101002.47
2023-04-10T19:23:22.481Z,100979.84
2023-04-10T19:28:31.597Z,100978.66
2023-04-10T19:33:37.528Z,100975.72
2023-04-10T19:38:41.204Z,100981.59
2023-04-10T19:43:58.697Z,100983.59
2023-04-10T19:49:07.047Z,100959.94
2023-04-10T19:54:05.200Z,100969.56
2023-04-10T19:59:09.990Z,100996.06
2023-04-10T20:04:16.571Z,101008.75
2023-04-10T20:09:21.670Z,100985.31
2023-04-10T20:14:29.878Z,100972.63
2023-04-10T20:19:34.692Z,100978.34
2023-04-10T20:24:33.156Z,100963.88
2023-04-10T20:29:33.040Z,100962.25
2023-04-10T20:34:39.488Z,100956.16
2023-04-10T20:39:43.221Z,100963.81
2023-04-10T20:44:41.990Z,100945.13
2023-04-10T20:49:46.416Z,100957.78
2023-04-10T20:54:44.310Z,100936.78
2023-04-10T20:59:47.312Z,100962.72
2023-04-10T21:04:51.590Z,100942.22
2023-04-10T21:09:51.204Z,100948.56
2023-04-10T21:14:52.127Z,100953.91
2023-04-10T21:19:53.942Z,100920.94
2023-04-10T21:24:52.606Z,100961.00
2023-04-10T21:29:56.166Z,100931.88
2023-04-10T21:34:57.548Z,100935.59
2023-04-10T21:39:58.948Z,100926.59
2023-04-10T21:44:58.050Z,100914.28
2023-04-10T21:50:04.362Z,100929.13
2023-04-10T21:55:06.736Z,100902.38
2023-04-10T22:00:10.053Z,100931.88
2023-04-10T22:05:12.005Z,100895.69
2023-04-10T22:10:13.276Z,100899.63
2023-04-10T22:15:13.717Z,100918.28
2023-04-10T22:20:18.378Z,100889.38
2023-04-10T22:25:22.583Z,100892.19
2023-04-10T22:30:26.692Z,100887.78
2023-04-10T22:35:25.934Z,100890.47
2023-04-10T22:40:27.228Z,100892.75
2023-04-10T22:45:29.231Z,100906.09
2023-04-10T22:50:31.702Z,100877.66
2023-04-10T22:55:34.396Z,100851.75
2023-04-10T23:00:39.063Z,100856.16
2023-04-10T23:05:38.012Z,100848.00
2023-04-10T23:10:37.223Z,100841.94
2023-04-10T23:15:41.422Z,100860.41
2023-04-10T23:20:41.952Z,100851.09
2023-04-10T23:25:42.772Z,100830.72
2023-04-10T23:30:45.443Z,100865.00
2023-04-10T23:35:44.251Z,100839.22
2023-04-10T23:40:46.452Z,100842.78
2023-04-10T23:45:46.297Z,100802.59
2023-04-10T23:50:49.154Z,100808.50
2023-04-10T23:55:51.677Z,100802.44
